sensor_id;sensor_type;location;lat;lon;timestamp;P1;durP1;ratioP1;P2;durP2;ratioP2
10389;SDS011;5241;47.830;12.972;2023-11-19T00:01:47;1.30;;;0.50;;
10389;SDS011;5241;47.830;12.972;2023-11-19T00:04:12;0.40;;;0.40;;
10389;SDS011;5241;47.830;12.972;2023-11-19T00:06:38;1.10;;;0.50;;
10389;SDS011;5241;47.830;12.972;2023-11-19T00:09:04;0.70;;;0.53;;
10389;SDS011;5241;47.830;12.972;2023-11-19T00:11:30;0.60;;;0.60;;
10389;SDS011;5241;47.830;12.972;2023-11-19T00:13:55;0.50;;;0.50;;
10389;SDS011;5241;47.830;12.972;2023-11-19T00:16:21;0.50;;;0.50;;
10389;SDS011;5241;47.830;12.972;2023-11-19T00:18:46;0.80;;;0.70;;
10389;SDS011;5241;47.830;12.972;2023-11-19T00:21:12;0.50;;;0.50;;
10389;SDS011;5241;47.830;12.972;2023-11-19T00:23:37;0.53;;;0.40;;
10389;SDS011;5241;47.830;12.972;2023-11-19T00:26:03;0.47;;;0.47;;
10389;SDS011;5241;47.830;12.972;2023-11-19T00:28:31;0.43;;;0.43;;
10389;SDS011;5241;47.830;12.972;2023-11-19T00:30:59;0.40;;;0.40;;
10389;SDS011;5241;47.830;12.972;2023-11-19T00:33:25;0.30;;;0.30;;
10389;SDS011;5241;47.830;12.972;2023-11-19T00:35:50;0.30;;;0.30;;
10389;SDS011;5241;47.830;12.972;2023-11-19T00:38:16;0.50;;;0.50;;
10389;SDS011;5241;47.830;12.972;2023-11-19T00:40:41;0.40;;;0.40;;
10389;SDS011;5241;47.830;12.972;2023-11-19T00:43:07;0.83;;;0.57;;
10389;SDS011;5241;47.830;12.972;2023-11-19T00:45:32;0.50;;;0.50;;
10389;SDS011;5241;47.830;12.972;2023-11-19T00:47:58;0.50;;;0.50;;
10389;SDS011;5241;47.830;12.972;2023-11-19T00:50:24;0.67;;;0.60;;
10389;SDS011;5241;47.830;12.972;2023-11-19T00:52:50;0.60;;;0.50;;
10389;SDS011;5241;47.830;12.972;2023-11-19T00:55:16;0.70;;;0.70;;
10389;SDS011;5241;47.830;12.972;2023-11-19T00:57:42;0.70;;;0.70;;
10389;SDS011;5241;47.830;12.972;2023-11-19T01:00:08;0.73;;;0.73;;
10389;SDS011;5241;47.830;12.972;2023-11-19T01:02:43;0.50;;;0.50;;
10389;SDS011;5241;47.830;12.972;2023-11-19T01:05:10;0.67;;;0.67;;
10389;SDS011;5241;47.830;12.972;2023-11-19T01:07:39;0.50;;;0.50;;
10389;SDS011;5241;47.830;12.972;2023-11-19T01:10:05;0.60;;;0.60;;
10389;SDS011;5241;47.830;12.972;2023-11-19T01:12:32;0.90;;;0.80;;
10389;SDS011;5241;47.830;12.972;2023-11-19T01:14:57;0.53;;;0.53;;
10389;SDS011;5241;47.830;12.972;2023-11-19T01:17:23;0.60;;;0.40;;
10389;SDS011;5241;47.830;12.972;2023-11-19T01:19:49;0.40;;;0.40;;
10389;SDS011;5241;47.830;12.972;2023-11-19T01:22:15;1.17;;;0.40;;
10389;SDS011;5241;47.830;12.972;2023-11-19T01:24:40;0.47;;;0.47;;
10389;SDS011;5241;47.830;12.972;2023-11-19T01:27:06;0.50;;;0.50;;
10389;SDS011;5241;47.830;12.972;2023-11-19T01:29:32;0.40;;;0.40;;
10389;SDS011;5241;47.830;12.972;2023-11-19T01:31:58;0.47;;;0.47;;
10389;SDS011;5241;47.830;12.972;2023-11-19T01:34:23;1.13;;;0.60;;
10389;SDS011;5241;47.830;12.972;2023-11-19T01:36:49;0.63;;;0.50;;
10389;SDS011;5241;47.830;12.972;2023-11-19T01:39:15;0.50;;;0.50;;
10389;SDS011;5241;47.830;12.972;2023-11-19T01:41:44;0.50;;;0.50;;
10389;SDS011;5241;47.830;12.972;2023-11-19T01:44:10;1.33;;;0.70;;
10389;SDS011;5241;47.830;12.972;2023-11-19T01:46:40;0.50;;;0.40;;
10389;SDS011;5241;47.830;12.972;2023-11-19T01:49:07;0.20;;;0.20;;
10389;SDS011;5241;47.830;12.972;2023-11-19T01:51:33;0.33;;;0.33;;
10389;SDS011;5241;47.830;12.972;2023-11-19T01:53:59;0.43;;;0.43;;
10389;SDS011;5241;47.830;12.972;2023-11-19T01:56:25;0.30;;;0.30;;
10389;SDS011;5241;47.830;12.972;2023-11-19T01:58:52;0.33;;;0.33;;
10389;SDS011;5241;47.830;12.972;2023-11-19T02:01:19;1.17;;;0.63;;
10389;SDS011;5241;47.830;12.972;2023-11-19T02:03:45;0.83;;;0.60;;
10389;SDS011;5241;47.830;12.972;2023-11-19T02:06:12;0.50;;;0.50;;
10389;SDS011;5241;47.830;12.972;2023-11-19T02:08:38;0.50;;;0.50;;
10389;SDS011;5241;47.830;12.972;2023-11-19T02:11:04;0.60;;;0.60;;
10389;SDS011;5241;47.830;12.972;2023-11-19T02:13:32;0.50;;;0.50;;
10389;SDS011;5241;47.830;12.972;2023-11-19T02:15:57;0.53;;;0.50;;
10389;SDS011;5241;47.830;12.972;2023-11-19T02:18:25;0.47;;;0.47;;
10389;SDS011;5241;47.830;12.972;2023-11-19T02:20:55;0.60;;;0.60;;
10389;SDS011;5241;47.830;12.972;2023-11-19T02:23:27;0.50;;;0.50;;
10389;SDS011;5241;47.830;12.972;2023-11-19T02:25:57;0.60;;;0.60;;
10389;SDS011;5241;47.830;12.972;2023-11-19T02:28:26;1.80;;;0.77;;
10389;SDS011;5241;47.830;12.972;2023-11-19T02:30:52;0.60;;;0.60;;
10389;SDS011;5241;47.830;12.972;2023-11-19T02:33:18;0.50;;;0.50;;
10389;SDS011;5241;47.830;12.972;2023-11-19T02:35:43;0.77;;;0.77;;
10389;SDS011;5241;47.830;12.972;2023-11-19T02:38:09;0.70;;;0.70;;
10389;SDS011;5241;47.830;12.972;2023-11-19T02:40:36;0.53;;;0.53;;
10389;SDS011;5241;47.830;12.972;2023-11-19T02:43:01;0.50;;;0.50;;
10389;SDS011;5241;47.830;12.972;2023-11-19T02:45:30;0.63;;;0.53;;
10389;SDS011;5241;47.830;12.972;2023-11-19T02:47:56;0.93;;;0.73;;
10389;SDS011;5241;47.830;12.972;2023-11-19T02:50:21;0.37;;;0.37;;
10389;SDS011;5241;47.830;12.972;2023-11-19T02:52:50;0.50;;;0.50;;
10389;SDS011;5241;47.830;12.972;2023-11-19T02:55:17;0.83;;;0.63;;
10389;SDS011;5241;47.830;12.972;2023-11-19T02:57:43;0.37;;;0.37;;
10389;SDS011;5241;47.830;12.972;2023-11-19T03:00:16;0.40;;;0.40;;
10389;SDS011;5241;47.830;12.972;2023-11-19T03:02:43;0.43;;;0.43;;
10389;SDS011;5241;47.830;12.972;2023-11-19T03:05:12;0.40;;;0.30;;
10389;SDS011;5241;47.830;12.972;2023-11-19T03:07:40;0.50;;;0.50;;
10389;SDS011;5241;47.830;12.972;2023-11-19T03:10:07;0.40;;;0.40;;
10389;SDS011;5241;47.830;12.972;2023-11-19T03:12:34;0.67;;;0.50;;
10389;SDS011;5241;47.830;12.972;2023-11-19T03:15:00;0.50;;;0.50;;
10389;SDS011;5241;47.830;12.972;2023-11-19T03:17:26;0.73;;;0.73;;
10389;SDS011;5241;47.830;12.972;2023-11-19T03:19:51;0.57;;;0.50;;
10389;SDS011;5241;47.830;12.972;2023-11-19T03:22:17;1.03;;;0.90;;
10389;SDS011;5241;47.830;12.972;2023-11-19T03:24:42;1.43;;;1.30;;
10389;SDS011;5241;47.830;12.972;2023-11-19T03:27:08;1.60;;;1.50;;
10389;SDS011;5241;47.830;12.972;2023-11-19T03:29:33;1.90;;;1.60;;
10389;SDS011;5241;47.830;12.972;2023-11-19T03:31:59;2.00;;;1.80;;
10389;SDS011;5241;47.830;12.972;2023-11-19T03:34:24;2.03;;;1.67;;
10389;SDS011;5241;47.830;12.972;2023-11-19T03:36:51;1.40;;;1.20;;
10389;SDS011;5241;47.830;12.972;2023-11-19T03:39:16;2.30;;;2.10;;
10389;SDS011;5241;47.830;12.972;2023-11-19T03:41:44;2.10;;;1.73;;
10389;SDS011;5241;47.830;12.972;2023-11-19T03:44:12;4.03;;;2.10;;
10389;SDS011;5241;47.830;12.972;2023-11-19T03:46:37;3.57;;;2.80;;
10389;SDS011;5241;47.830;12.972;2023-11-19T03:49:03;3.50;;;3.13;;
10389;SDS011;5241;47.830;12.972;2023-11-19T03:51:29;4.73;;;3.07;;
10389;SDS011;5241;47.830;12.972;2023-11-19T03:53:55;4.80;;;3.13;;
10389;SDS011;5241;47.830;12.972;2023-11-19T03:56:20;4.27;;;3.43;;
10389;SDS011;5241;47.830;12.972;2023-11-19T03:58:46;5.43;;;3.77;;
10389;SDS011;5241;47.830;12.972;2023-11-19T04:01:12;3.50;;;2.83;;
10389;SDS011;5241;47.830;12.972;2023-11-19T04:03:38;3.40;;;2.37;;
10389;SDS011;5241;47.830;12.972;2023-11-19T04:06:04;2.20;;;1.90;;
10389;SDS011;5241;47.830;12.972;2023-11-19T04:08:29;1.70;;;1.60;;
10389;SDS011;5241;47.830;12.972;2023-11-19T04:10:55;1.40;;;1.30;;
10389;SDS011;5241;47.830;12.972;2023-11-19T04:13:20;1.43;;;1.33;;
10389;SDS011;5241;47.830;12.972;2023-11-19T04:15:47;1.87;;;1.50;;
10389;SDS011;5241;47.830;12.972;2023-11-19T04:18:14;1.50;;;1.40;;
10389;SDS011;5241;47.830;12.972;2023-11-19T04:20:40;1.70;;;1.37;;
10389;SDS011;5241;47.830;12.972;2023-11-19T04:23:07;2.03;;;1.50;;
10389;SDS011;5241;47.830;12.972;2023-11-19T04:25:36;1.70;;;1.60;;
10389;SDS011;5241;47.830;12.972;2023-11-19T04:28:02;2.23;;;1.60;;
10389;SDS011;5241;47.830;12.972;2023-11-19T04:30:28;1.63;;;1.53;;
10389;SDS011;5241;47.830;12.972;2023-11-19T04:32:53;1.10;;;1.00;;
10389;SDS011;5241;47.830;12.972;2023-11-19T04:35:19;1.20;;;1.10;;
10389;SDS011;5241;47.830;12.972;2023-11-19T04:37:45;0.70;;;0.70;;
10389;SDS011;5241;47.830;12.972;2023-11-19T04:40:10;1.07;;;0.97;;
10389;SDS011;5241;47.830;12.972;2023-11-19T04:42:37;1.03;;;0.93;;
10389;SDS011;5241;47.830;12.972;2023-11-19T04:45:05;1.73;;;1.10;;
10389;SDS011;5241;47.830;12.972;2023-11-19T04:47:32;0.80;;;0.80;;
10389;SDS011;5241;47.830;12.972;2023-11-19T04:49:58;0.70;;;0.70;;
10389;SDS011;5241;47.830;12.972;2023-11-19T04:52:23;1.17;;;0.90;;
10389;SDS011;5241;47.830;12.972;2023-11-19T04:54:49;1.17;;;1.00;;
10389;SDS011;5241;47.830;12.972;2023-11-19T04:57:15;1.43;;;0.93;;
10389;SDS011;5241;47.830;12.972;2023-11-19T04:59:41;1.90;;;1.00;;
10389;SDS011;5241;47.830;12.972;2023-11-19T05:02:06;1.00;;;0.90;;
10389;SDS011;5241;47.830;12.972;2023-11-19T05:04:33;1.23;;;1.00;;
10389;SDS011;5241;47.830;12.972;2023-11-19T05:06:59;0.70;;;0.70;;
10389;SDS011;5241;47.830;12.972;2023-11-19T05:09:25;1.87;;;1.70;;
10389;SDS011;5241;47.830;12.972;2023-11-19T05:11:51;2.13;;;1.90;;
10389;SDS011;5241;47.830;12.972;2023-11-19T05:14:16;1.30;;;1.20;;
10389;SDS011;5241;47.830;12.972;2023-11-19T05:16:43;1.57;;;1.40;;
10389;SDS011;5241;47.830;12.972;2023-11-19T05:19:09;0.90;;;0.90;;
10389;SDS011;5241;47.830;12.972;2023-11-19T05:21:34;0.60;;;0.60;;
10389;SDS011;5241;47.830;12.972;2023-11-19T05:24:01;1.00;;;0.80;;
10389;SDS011;5241;47.830;12.972;2023-11-19T05:26:30;1.17;;;0.70;;
10389;SDS011;5241;47.830;12.972;2023-11-19T05:28:55;0.60;;;0.60;;
10389;SDS011;5241;47.830;12.972;2023-11-19T05:31:21;1.07;;;0.97;;
10389;SDS011;5241;47.830;12.972;2023-11-19T05:33:47;0.60;;;0.60;;
10389;SDS011;5241;47.830;12.972;2023-11-19T05:36:12;0.70;;;0.70;;
10389;SDS011;5241;47.830;12.972;2023-11-19T05:38:38;1.00;;;0.90;;
10389;SDS011;5241;47.830;12.972;2023-11-19T05:41:04;1.40;;;1.07;;
10389;SDS011;5241;47.830;12.972;2023-11-19T05:43:33;1.37;;;1.10;;
10389;SDS011;5241;47.830;12.972;2023-11-19T05:45:59;1.10;;;0.90;;
10389;SDS011;5241;47.830;12.972;2023-11-19T05:48:26;1.20;;;1.00;;
10389;SDS011;5241;47.830;12.972;2023-11-19T05:50:52;1.20;;;1.10;;
10389;SDS011;5241;47.830;12.972;2023-11-19T05:53:18;1.20;;;1.10;;
10389;SDS011;5241;47.830;12.972;2023-11-19T05:55:44;0.80;;;0.70;;
10389;SDS011;5241;47.830;12.972;2023-11-19T05:58:13;1.03;;;0.93;;
10389;SDS011;5241;47.830;12.972;2023-11-19T06:00:39;0.70;;;0.60;;
10389;SDS011;5241;47.830;12.972;2023-11-19T06:03:05;0.60;;;0.50;;
10389;SDS011;5241;47.830;12.972;2023-11-19T06:05:32;0.40;;;0.40;;
10389;SDS011;5241;47.830;12.972;2023-11-19T06:07:58;0.10;;;0.10;;
10389;SDS011;5241;47.830;12.972;2023-11-19T06:10:23;0.27;;;0.27;;
10389;SDS011;5241;47.830;12.972;2023-11-19T06:12:57;0.50;;;0.50;;
10389;SDS011;5241;47.830;12.972;2023-11-19T06:15:24;0.50;;;0.50;;
10389;SDS011;5241;47.830;12.972;2023-11-19T06:17:53;0.50;;;0.50;;
10389;SDS011;5241;47.830;12.972;2023-11-19T06:20:20;0.53;;;0.53;;
10389;SDS011;5241;47.830;12.972;2023-11-19T06:22:45;0.70;;;0.70;;
10389;SDS011;5241;47.830;12.972;2023-11-19T06:25:11;1.03;;;0.90;;
10389;SDS011;5241;47.830;12.972;2023-11-19T06:27:39;1.00;;;0.90;;
10389;SDS011;5241;47.830;12.972;2023-11-19T06:30:05;1.03;;;0.93;;
10389;SDS011;5241;47.830;12.972;2023-11-19T06:32:32;1.07;;;0.93;;
10389;SDS011;5241;47.830;12.972;2023-11-19T06:34:57;2.57;;;0.80;;
10389;SDS011;5241;47.830;12.972;2023-11-19T06:37:23;0.60;;;0.60;;
10389;SDS011;5241;47.830;12.972;2023-11-19T06:39:49;0.70;;;0.70;;
10389;SDS011;5241;47.830;12.972;2023-11-19T06:42:14;1.73;;;0.60;;
10389;SDS011;5241;47.830;12.972;2023-11-19T06:44:40;0.47;;;0.40;;
10389;SDS011;5241;47.830;12.972;2023-11-19T06:47:05;0.60;;;0.60;;
10389;SDS011;5241;47.830;12.972;2023-11-19T06:49:31;0.50;;;0.50;;
10389;SDS011;5241;47.830;12.972;2023-11-19T06:51:57;0.83;;;0.47;;
10389;SDS011;5241;47.830;12.972;2023-11-19T06:54:23;0.50;;;0.50;;
10389;SDS011;5241;47.830;12.972;2023-11-19T06:56:48;0.60;;;0.60;;
10389;SDS011;5241;47.830;12.972;2023-11-19T06:59:14;0.50;;;0.50;;
10389;SDS011;5241;47.830;12.972;2023-11-19T07:01:39;0.50;;;0.50;;
10389;SDS011;5241;47.830;12.972;2023-11-19T07:04:07;0.43;;;0.43;;
10389;SDS011;5241;47.830;12.972;2023-11-19T07:06:35;0.30;;;0.30;;
10389;SDS011;5241;47.830;12.972;2023-11-19T07:09:01;0.40;;;0.40;;
10389;SDS011;5241;47.830;12.972;2023-11-19T07:11:34;1.37;;;0.40;;
10389;SDS011;5241;47.830;12.972;2023-11-19T07:14:01;0.40;;;0.40;;
10389;SDS011;5241;47.830;12.972;2023-11-19T07:16:27;0.50;;;0.50;;
10389;SDS011;5241;47.830;12.972;2023-11-19T07:18:53;1.20;;;0.67;;
10389;SDS011;5241;47.830;12.972;2023-11-19T07:21:19;0.43;;;0.43;;
10389;SDS011;5241;47.830;12.972;2023-11-19T07:23:44;0.63;;;0.60;;
10389;SDS011;5241;47.830;12.972;2023-11-19T07:26:11;0.50;;;0.50;;
10389;SDS011;5241;47.830;12.972;2023-11-19T07:28:37;0.57;;;0.50;;
10389;SDS011;5241;47.830;12.972;2023-11-19T07:31:04;0.70;;;0.50;;
10389;SDS011;5241;47.830;12.972;2023-11-19T07:33:33;1.40;;;0.80;;
10389;SDS011;5241;47.830;12.972;2023-11-19T07:35:58;0.93;;;0.40;;
10389;SDS011;5241;47.830;12.972;2023-11-19T07:38:24;0.50;;;0.50;;
10389;SDS011;5241;47.830;12.972;2023-11-19T07:40:49;0.60;;;0.60;;
10389;SDS011;5241;47.830;12.972;2023-11-19T07:43:15;0.47;;;0.47;;
10389;SDS011;5241;47.830;12.972;2023-11-19T07:45:41;1.30;;;0.63;;
10389;SDS011;5241;47.830;12.972;2023-11-19T07:48:08;0.30;;;0.30;;
10389;SDS011;5241;47.830;12.972;2023-11-19T07:50:35;0.50;;;0.50;;
10389;SDS011;5241;47.830;12.972;2023-11-19T07:53:00;0.60;;;0.60;;
10389;SDS011;5241;47.830;12.972;2023-11-19T07:55:27;0.97;;;0.67;;
10389;SDS011;5241;47.830;12.972;2023-11-19T07:57:52;0.70;;;0.70;;
10389;SDS011;5241;47.830;12.972;2023-11-19T08:00:18;0.57;;;0.57;;
10389;SDS011;5241;47.830;12.972;2023-11-19T08:02:44;0.60;;;0.57;;
10389;SDS011;5241;47.830;12.972;2023-11-19T08:05:10;0.90;;;0.80;;
10389;SDS011;5241;47.830;12.972;2023-11-19T08:07:36;0.73;;;0.73;;
10389;SDS011;5241;47.830;12.972;2023-11-19T08:10:02;0.63;;;0.63;;
10389;SDS011;5241;47.830;12.972;2023-11-19T08:12:30;0.83;;;0.83;;
10389;SDS011;5241;47.830;12.972;2023-11-19T08:14:56;0.60;;;0.60;;
10389;SDS011;5241;47.830;12.972;2023-11-19T08:17:23;0.50;;;0.50;;
10389;SDS011;5241;47.830;12.972;2023-11-19T08:19:49;0.87;;;0.77;;
10389;SDS011;5241;47.830;12.972;2023-11-19T08:22:15;1.10;;;1.00;;
10389;SDS011;5241;47.830;12.972;2023-11-19T08:24:41;1.03;;;0.93;;
10389;SDS011;5241;47.830;12.972;2023-11-19T08:27:08;1.00;;;0.90;;
10389;SDS011;5241;47.830;12.972;2023-11-19T08:29:33;1.00;;;0.90;;
10389;SDS011;5241;47.830;12.972;2023-11-19T08:32:02;1.33;;;1.23;;
10389;SDS011;5241;47.830;12.972;2023-11-19T08:34:28;1.03;;;0.93;;
10389;SDS011;5241;47.830;12.972;2023-11-19T08:36:54;1.10;;;1.00;;
10389;SDS011;5241;47.830;12.972;2023-11-19T08:39:20;1.13;;;1.00;;
10389;SDS011;5241;47.830;12.972;2023-11-19T08:41:49;1.30;;;1.20;;
10389;SDS011;5241;47.830;12.972;2023-11-19T08:44:15;1.10;;;1.00;;
10389;SDS011;5241;47.830;12.972;2023-11-19T08:46:50;0.90;;;0.80;;
10389;SDS011;5241;47.830;12.972;2023-11-19T08:49:16;0.73;;;0.73;;
10389;SDS011;5241;47.830;12.972;2023-11-19T08:51:42;0.80;;;0.77;;
10389;SDS011;5241;47.830;12.972;2023-11-19T08:54:08;1.40;;;1.30;;
10389;SDS011;5241;47.830;12.972;2023-11-19T08:56:33;0.80;;;0.80;;
10389;SDS011;5241;47.830;12.972;2023-11-19T08:59:00;1.13;;;1.03;;
10389;SDS011;5241;47.830;12.972;2023-11-19T09:01:26;2.17;;;1.50;;
10389;SDS011;5241;47.830;12.972;2023-11-19T09:03:51;1.23;;;1.13;;
10389;SDS011;5241;47.830;12.972;2023-11-19T09:06:17;1.70;;;1.37;;
10389;SDS011;5241;47.830;12.972;2023-11-19T09:08:43;1.00;;;0.97;;
10389;SDS011;5241;47.830;12.972;2023-11-19T09:11:08;0.87;;;0.80;;
10389;SDS011;5241;47.830;12.972;2023-11-19T09:13:34;0.90;;;0.90;;
10389;SDS011;5241;47.830;12.972;2023-11-19T09:16:00;4.40;;;0.80;;
10389;SDS011;5241;47.830;12.972;2023-11-19T09:18:29;1.00;;;0.63;;
10389;SDS011;5241;47.830;12.972;2023-11-19T09:20:55;0.80;;;0.80;;
10389;SDS011;5241;47.830;12.972;2023-11-19T09:23:21;0.97;;;0.87;;
10389;SDS011;5241;47.830;12.972;2023-11-19T09:25:46;1.30;;;1.00;;
10389;SDS011;5241;47.830;12.972;2023-11-19T09:28:12;1.10;;;1.00;;
10389;SDS011;5241;47.830;12.972;2023-11-19T09:30:39;1.23;;;0.93;;
10389;SDS011;5241;47.830;12.972;2023-11-19T09:33:04;0.80;;;0.80;;
10389;SDS011;5241;47.830;12.972;2023-11-19T09:35:30;0.90;;;0.80;;
10389;SDS011;5241;47.830;12.972;2023-11-19T09:37:56;0.60;;;0.60;;
10389;SDS011;5241;47.830;12.972;2023-11-19T09:40:21;0.63;;;0.63;;
10389;SDS011;5241;47.830;12.972;2023-11-19T09:42:47;0.77;;;0.77;;
10389;SDS011;5241;47.830;12.972;2023-11-19T09:45:14;0.80;;;0.80;;
10389;SDS011;5241;47.830;12.972;2023-11-19T09:47:44;0.77;;;0.63;;
10389;SDS011;5241;47.830;12.972;2023-11-19T09:50:16;1.23;;;1.07;;
10389;SDS011;5241;47.830;12.972;2023-11-19T09:52:43;1.53;;;1.43;;
10389;SDS011;5241;47.830;12.972;2023-11-19T09:55:10;1.73;;;1.60;;
10389;SDS011;5241;47.830;12.972;2023-11-19T09:57:35;1.33;;;1.20;;
10389;SDS011;5241;47.830;12.972;2023-11-19T10:00:07;0.83;;;0.80;;
10389;SDS011;5241;47.830;12.972;2023-11-19T10:02:35;1.10;;;1.10;;
10389;SDS011;5241;47.830;12.972;2023-11-19T10:05:03;1.30;;;1.20;;
10389;SDS011;5241;47.830;12.972;2023-11-19T10:07:31;1.23;;;1.13;;
10389;SDS011;5241;47.830;12.972;2023-11-19T10:09:58;0.90;;;0.90;;
10389;SDS011;5241;47.830;12.972;2023-11-19T10:12:29;1.17;;;1.07;;
10389;SDS011;5241;47.830;12.972;2023-11-19T10:14:56;1.00;;;0.90;;
10389;SDS011;5241;47.830;12.972;2023-11-19T10:17:26;2.30;;;0.70;;
10389;SDS011;5241;47.830;12.972;2023-11-19T10:20:01;1.77;;;1.00;;
10389;SDS011;5241;47.830;12.972;2023-11-19T10:22:28;0.50;;;0.50;;
10389;SDS011;5241;47.830;12.972;2023-11-19T10:24:53;1.43;;;0.90;;
10389;SDS011;5241;47.830;12.972;2023-11-19T10:27:19;1.20;;;0.93;;
10389;SDS011;5241;47.830;12.972;2023-11-19T10:29:48;1.97;;;0.90;;
10389;SDS011;5241;47.830;12.972;2023-11-19T10:32:13;0.80;;;0.80;;
10389;SDS011;5241;47.830;12.972;2023-11-19T10:34:42;1.17;;;0.80;;
10389;SDS011;5241;47.830;12.972;2023-11-19T10:37:08;0.80;;;0.80;;
10389;SDS011;5241;47.830;12.972;2023-11-19T10:39:52;0.70;;;0.70;;
10389;SDS011;5241;47.830;12.972;2023-11-19T10:42:19;0.80;;;0.80;;
10389;SDS011;5241;47.830;12.972;2023-11-19T10:44:45;1.10;;;1.00;;
10389;SDS011;5241;47.830;12.972;2023-11-19T10:47:11;1.10;;;1.00;;
10389;SDS011;5241;47.830;12.972;2023-11-19T10:49:38;0.90;;;0.90;;
10389;SDS011;5241;47.830;12.972;2023-11-19T10:52:04;1.40;;;1.27;;
10389;SDS011;5241;47.830;12.972;2023-11-19T10:54:32;1.30;;;1.10;;
10389;SDS011;5241;47.830;12.972;2023-11-19T10:56:59;0.93;;;0.93;;
10389;SDS011;5241;47.830;12.972;2023-11-19T10:59:28;1.00;;;0.90;;
10389;SDS011;5241;47.830;12.972;2023-11-19T11:01:57;0.83;;;0.83;;
10389;SDS011;5241;47.830;12.972;2023-11-19T11:04:24;1.37;;;1.00;;
10389;SDS011;5241;47.830;12.972;2023-11-19T11:06:52;1.00;;;0.90;;
10389;SDS011;5241;47.830;12.972;2023-11-19T11:09:20;1.17;;;1.10;;
10389;SDS011;5241;47.830;12.972;2023-11-19T11:11:46;1.50;;;1.20;;
10389;SDS011;5241;47.830;12.972;2023-11-19T11:14:13;1.10;;;1.00;;
10389;SDS011;5241;47.830;12.972;2023-11-19T11:16:44;1.37;;;1.10;;
10389;SDS011;5241;47.830;12.972;2023-11-19T11:19:11;1.07;;;0.90;;
10389;SDS011;5241;47.830;12.972;2023-11-19T11:21:38;1.37;;;1.27;;
10389;SDS011;5241;47.830;12.972;2023-11-19T11:24:13;1.20;;;1.10;;
10389;SDS011;5241;47.830;12.972;2023-11-19T11:29:41;1.90;;;1.30;;
10389;SDS011;5241;47.830;12.972;2023-11-19T11:39:57;0.93;;;0.83;;
10389;SDS011;5241;47.830;12.972;2023-11-19T11:42:30;1.00;;;0.90;;
10389;SDS011;5241;47.830;12.972;2023-11-19T11:45:00;0.80;;;0.80;;
10389;SDS011;5241;47.830;12.972;2023-11-19T11:55:27;0.67;;;0.67;;
10389;SDS011;5241;47.830;12.972;2023-11-19T11:57:54;0.80;;;0.80;;
10389;SDS011;5241;47.830;12.972;2023-11-19T12:00:26;0.80;;;0.80;;
10389;SDS011;5241;47.830;12.972;2023-11-19T12:02:54;0.80;;;0.80;;
10389;SDS011;5241;47.830;12.972;2023-11-19T12:05:20;0.93;;;0.80;;
10389;SDS011;5241;47.830;12.972;2023-11-19T12:07:54;0.70;;;0.70;;
10389;SDS011;5241;47.830;12.972;2023-11-19T12:10:30;1.20;;;1.10;;
10389;SDS011;5241;47.830;12.972;2023-11-19T12:13:00;0.83;;;0.83;;
10389;SDS011;5241;47.830;12.972;2023-11-19T12:15:26;0.70;;;0.70;;
10389;SDS011;5241;47.830;12.972;2023-11-19T12:17:53;0.67;;;0.67;;
10389;SDS011;5241;47.830;12.972;2023-11-19T12:20:20;0.60;;;0.60;;
10389;SDS011;5241;47.830;12.972;2023-11-19T12:22:47;0.60;;;0.60;;
10389;SDS011;5241;47.830;12.972;2023-11-19T12:25:14;0.60;;;0.60;;
10389;SDS011;5241;47.830;12.972;2023-11-19T12:30:08;1.13;;;0.90;;
10389;SDS011;5241;47.830;12.972;2023-11-19T12:32:41;0.90;;;0.80;;
10389;SDS011;5241;47.830;12.972;2023-11-19T12:35:10;1.40;;;0.90;;
10389;SDS011;5241;47.830;12.972;2023-11-19T12:37:40;1.63;;;1.27;;
10389;SDS011;5241;47.830;12.972;2023-11-19T12:42:45;1.87;;;1.00;;
10389;SDS011;5241;47.830;12.972;2023-11-19T12:45:11;1.10;;;1.00;;
10389;SDS011;5241;47.830;12.972;2023-11-19T12:47:40;1.00;;;0.93;;
10389;SDS011;5241;47.830;12.972;2023-11-19T12:50:06;0.90;;;0.90;;
10389;SDS011;5241;47.830;12.972;2023-11-19T12:52:34;0.60;;;0.60;;
10389;SDS011;5241;47.830;12.972;2023-11-19T12:55:00;0.60;;;0.60;;
10389;SDS011;5241;47.830;12.972;2023-11-19T12:57:36;0.80;;;0.80;;
10389;SDS011;5241;47.830;12.972;2023-11-19T13:00:03;0.93;;;0.83;;
10389;SDS011;5241;47.830;12.972;2023-11-19T13:02:48;0.67;;;0.67;;
10389;SDS011;5241;47.830;12.972;2023-11-19T13:05:30;1.00;;;0.70;;
10389;SDS011;5241;47.830;12.972;2023-11-19T13:07:58;0.93;;;0.80;;
10389;SDS011;5241;47.830;12.972;2023-11-19T13:10:28;0.80;;;0.80;;
10389;SDS011;5241;47.830;12.972;2023-11-19T13:13:01;0.80;;;0.80;;
10389;SDS011;5241;47.830;12.972;2023-11-19T13:15:35;0.73;;;0.70;;
10389;SDS011;5241;47.830;12.972;2023-11-19T13:18:01;1.43;;;0.80;;
10389;SDS011;5241;47.830;12.972;2023-11-19T13:20:28;0.60;;;0.60;;
10389;SDS011;5241;47.830;12.972;2023-11-19T13:22:57;1.07;;;0.80;;
10389;SDS011;5241;47.830;12.972;2023-11-19T13:25:24;0.60;;;0.60;;
10389;SDS011;5241;47.830;12.972;2023-11-19T13:27:51;1.00;;;0.90;;
10389;SDS011;5241;47.830;12.972;2023-11-19T13:30:17;0.80;;;0.60;;
10389;SDS011;5241;47.830;12.972;2023-11-19T13:32:43;1.00;;;0.77;;
10389;SDS011;5241;47.830;12.972;2023-11-19T13:35:11;0.87;;;0.80;;
10389;SDS011;5241;47.830;12.972;2023-11-19T13:37:37;0.70;;;0.70;;
10389;SDS011;5241;47.830;12.972;2023-11-19T13:40:03;0.60;;;0.60;;
10389;SDS011;5241;47.830;12.972;2023-11-19T13:42:29;0.60;;;0.60;;
10389;SDS011;5241;47.830;12.972;2023-11-19T13:44:55;0.50;;;0.50;;
10389;SDS011;5241;47.830;12.972;2023-11-19T13:47:21;0.60;;;0.60;;
10389;SDS011;5241;47.830;12.972;2023-11-19T13:49:47;0.77;;;0.77;;
10389;SDS011;5241;47.830;12.972;2023-11-19T13:52:12;0.80;;;0.67;;
10389;SDS011;5241;47.830;12.972;2023-11-19T13:54:38;0.80;;;0.80;;
10389;SDS011;5241;47.830;12.972;2023-11-19T13:57:03;1.40;;;1.30;;
10389;SDS011;5241;47.830;12.972;2023-11-19T13:59:30;0.83;;;0.80;;
10389;SDS011;5241;47.830;12.972;2023-11-19T14:01:57;0.67;;;0.67;;
10389;SDS011;5241;47.830;12.972;2023-11-19T14:04:23;1.10;;;0.87;;
10389;SDS011;5241;47.830;12.972;2023-11-19T14:06:49;0.90;;;0.73;;
10389;SDS011;5241;47.830;12.972;2023-11-19T14:09:14;1.13;;;0.90;;
10389;SDS011;5241;47.830;12.972;2023-11-19T14:11:40;1.20;;;1.03;;
10389;SDS011;5241;47.830;12.972;2023-11-19T14:14:05;1.37;;;0.93;;
10389;SDS011;5241;47.830;12.972;2023-11-19T14:16:31;1.83;;;1.27;;
10389;SDS011;5241;47.830;12.972;2023-11-19T14:18:57;1.73;;;1.20;;
10389;SDS011;5241;47.830;12.972;2023-11-19T14:21:23;1.07;;;0.97;;
10389;SDS011;5241;47.830;12.972;2023-11-19T14:23:50;0.90;;;0.90;;
10389;SDS011;5241;47.830;12.972;2023-11-19T14:26:15;1.00;;;0.90;;
10389;SDS011;5241;47.830;12.972;2023-11-19T14:28:41;1.43;;;1.10;;
10389;SDS011;5241;47.830;12.972;2023-11-19T14:31:07;1.70;;;1.10;;
10389;SDS011;5241;47.830;12.972;2023-11-19T14:33:32;1.50;;;1.10;;
10389;SDS011;5241;47.830;12.972;2023-11-19T14:36:00;1.17;;;0.80;;
10389;SDS011;5241;47.830;12.972;2023-11-19T14:38:25;2.13;;;1.10;;
10389;SDS011;5241;47.830;12.972;2023-11-19T14:40:51;1.30;;;0.80;;
10389;SDS011;5241;47.830;12.972;2023-11-19T14:43:17;3.03;;;2.40;;
10389;SDS011;5241;47.830;12.972;2023-11-19T14:45:42;1.30;;;0.90;;
10389;SDS011;5241;47.830;12.972;2023-11-19T14:48:08;1.17;;;1.07;;
10389;SDS011;5241;47.830;12.972;2023-11-19T14:50:35;0.70;;;0.70;;
10389;SDS011;5241;47.830;12.972;2023-11-19T14:53:01;1.00;;;1.00;;
10389;SDS011;5241;47.830;12.972;2023-11-19T14:55:27;1.00;;;0.90;;
10389;SDS011;5241;47.830;12.972;2023-11-19T14:57:52;0.83;;;0.80;;
10389;SDS011;5241;47.830;12.972;2023-11-19T15:00:18;0.70;;;0.70;;
10389;SDS011;5241;47.830;12.972;2023-11-19T15:02:44;1.27;;;1.00;;
10389;SDS011;5241;47.830;12.972;2023-11-19T15:05:10;1.13;;;1.03;;
10389;SDS011;5241;47.830;12.972;2023-11-19T15:07:38;0.90;;;0.90;;
10389;SDS011;5241;47.830;12.972;2023-11-19T15:10:05;0.90;;;0.90;;